Time;durP1;ratioP1;P1;durP2;ratioP2;P2;SDS_P1;SDS_P2;PMS_P1;PMS_P2;Temp;Humidity;BMP_temperature;BMP_pressure;BME280_temperature;BME280_humidity;BME280_pressure;Samples;Min_cycle;Max_cycle;Signal;HPM_P1;HPM_P2
2022/03/21 00:00:10;;;;;;;;;;;;;;;2.56;42.61;100451.72;1763103;80;24558;-85
2022/03/21 00:02:37;;;;;;;;;;;;;;;2.65;42.64;100449.50;1777445;80;20198;-86
2022/03/21 00:05:05;;;;;;;;;;;;;;;2.66;42.64;100454.67;1783482;80;20257;-86
2022/03/21 00:07:31;;;;;;;;;;;;;;;2.50;42.60;100452.61;1774833;80;22684;-86
2022/03/21 00:09:57;;;;;;;;;;;;;;;2.37;42.56;100457.39;1779683;80;21010;-86
2022/03/21 00:12:23;;;;;;;;;;;;;;;2.28;42.57;100447.55;1779331;78;24540;-86
2022/03/21 00:14:49;;;;;;;;;;;;;;;2.24;42.60;100452.27;1778284;80;20233;-86
2022/03/21 00:17:16;;;;;;;;;;;;;;;2.21;42.65;100454.88;1783427;80;24761;-86
2022/03/21 00:19:43;;;;;;;;;;;;;;;2.15;42.69;100458.34;1783766;80;22057;-85
2022/03/21 00:22:09;;;;;;;;;;;;;;;2.13;42.71;100459.23;1779470;80;26016;-85
2022/03/21 00:24:38;;;;;;;;;;;;;;;2.10;42.75;100451.91;1782294;80;24455;-85
2022/03/21 00:27:04;;;;;;;;;;;;;;;2.12;42.79;100452.34;1776711;80;20311;-86
2022/03/21 00:29:30;;;;;;;;;;;;;;;2.20;42.86;100451.86;1778646;79;24982;-86
2022/03/21 00:31:57;;;;;;;;;;;;;;;2.23;42.90;100455.75;1776386;80;22059;-86
2022/03/21 00:34:23;;;;;;;;;;;;;;;2.25;42.95;100452.70;1783073;78;26035;-86
2022/03/21 00:36:50;;;;;;;;;;;;;;;2.22;43.00;100447.56;1777539;80;24550;-85
2022/03/21 00:39:16;;;;;;;;;;;;;;;2.15;43.03;100443.28;1775012;79;20209;-85
2022/03/21 00:41:42;;;;;;;;;;;;;;;2.08;43.06;100444.59;1781867;80;24884;-87
2022/03/21 00:44:08;;;;;;;;;;;;;;;2.12;43.13;100443.30;1781611;80;21943;-86
2022/03/21 00:46:34;;;;;;;;;;;;;;;2.22;43.19;100443.26;1780578;80;26037;-88
2022/03/21 00:49:00;;;;;;;;;;;;;;;2.15;43.19;100445.86;1782900;78;24523;-86
2022/03/21 00:51:26;;;;;;;;;;;;;;;1.94;43.17;100445.08;1773175;80;20860;-85
2022/03/21 00:53:53;;;;;;;;;;;;;;;1.76;43.15;100446.83;1776889;80;24743;-86
2022/03/21 00:56:19;;;;;;;;;;;;;;;1.68;43.17;100445.58;1779844;80;22580;-87
2022/03/21 00:58:51;;;;;;;;;;;;;;;1.85;43.25;100445.11;1780347;80;26004;-87
2022/03/21 01:01:17;;;;;;;;;;;;;;;1.98;43.33;100445.48;1771638;80;24728;-86
2022/03/21 01:03:43;;;;;;;;;;;;;;;1.96;43.37;100449.81;1769687;80;20221;-86
2022/03/21 01:06:09;;;;;;;;;;;;;;;1.82;43.37;100448.97;1774640;79;24955;-86
2022/03/21 01:08:38;;;;;;;;;;;;;;;1.81;43.41;100445.95;1786168;80;22053;-87
2022/03/21 01:11:04;;;;;;;;;;;;;;;1.80;43.45;100448.10;1774807;80;26085;-86
2022/03/21 01:13:30;;;;;;;;;;;;;;;1.74;43.48;100441.69;1777100;80;20836;-85
2022/03/21 01:15:58;;;;;;;;;;;;;;;1.74;43.51;100444.28;1779283;80;20245;-86
2022/03/21 01:18:25;;;;;;;;;;;;;;;1.72;43.52;100442.11;1783805;80;24728;-85
2022/03/21 01:20:51;;;;;;;;;;;;;;;1.75;43.58;100443.38;1775989;80;22144;-85
2022/03/21 01:23:17;;;;;;;;;;;;;;;1.72;43.59;100449.86;1777717;80;25970;-86
2022/03/21 01:25:43;;;;;;;;;;;;;;;1.55;43.57;100447.73;1774521;80;24403;-85
2022/03/21 01:28:09;;;;;;;;;;;;;;;1.40;43.54;100447.33;1782200;80;20221;-85
2022/03/21 01:30:36;;;;;;;;;;;;;;;1.31;43.55;100446.48;1782462;80;24838;-85
2022/03/21 01:33:02;;;;;;;;;;;;;;;1.34;43.61;100441.30;1784667;79;22062;-85
2022/03/21 01:35:28;;;;;;;;;;;;;;;1.47;43.69;100442.59;1775615;80;25990;-85
2022/03/21 01:37:54;;;;;;;;;;;;;;;1.48;43.72;100439.13;1777499;79;24600;-85
2022/03/21 01:40:20;;;;;;;;;;;;;;;1.56;43.78;100432.69;1750708;79;20299;-86
2022/03/21 01:42:47;;;;;;;;;;;;;;;1.56;43.79;100432.69;1731827;81;24788;-86
2022/03/21 01:45:13;;;;;;;;;;;;;;;1.54;43.84;100430.52;1726026;82;22086;-85
2022/03/21 01:47:39;;;;;;;;;;;;;;;1.31;43.83;100426.67;1724687;82;26001;-85
2022/03/21 01:50:08;;;;;;;;;;;;;;;1.08;43.84;100416.39;1694599;82;24496;-85
2022/03/21 01:52:37;;;;;;;;;;;;;;;0.99;43.84;100424.11;1666701;84;20447;-85
2022/03/21 01:57:49;;;;;;;;;;;;;;;1.02;43.99;100419.39;1677928;85;21806;-85
2022/03/21 02:00:15;;;;;;;;;;;;;;;1.01;44.05;100417.67;1724774;82;26079;-85
2022/03/21 02:02:42;;;;;;;;;;;;;;;0.93;44.09;100416.83;1726136;83;24426;-84
2022/03/21 02:05:10;;;;;;;;;;;;;;;1.05;44.21;100415.52;1728162;82;20251;-84
2022/03/21 02:07:36;;;;;;;;;;;;;;;1.11;44.28;100418.95;1728973;81;24921;-85
2022/03/21 02:10:04;;;;;;;;;;;;;;;1.01;44.29;100409.94;1730152;82;21906;-85
2022/03/21 02:12:33;;;;;;;;;;;;;;;0.91;44.32;100415.52;1730628;81;26664;-85
2022/03/21 02:15:01;;;;;;;;;;;;;;;0.92;44.38;100421.11;1731852;82;25175;-84
2022/03/21 02:17:28;;;;;;;;;;;;;;;1.05;44.44;100420.24;1731184;81;20212;-84
2022/03/21 02:19:57;;;;;;;;;;;;;;;1.17;44.55;100418.96;1728935;82;24716;-85
2022/03/21 02:22:28;;;;;;;;;;;;;;;1.32;44.63;100415.93;1730133;81;22296;-85
2022/03/21 02:25:11;;;;;;;;;;;;;;;1.42;44.70;100417.67;1730317;82;25896;-85
2022/03/21 02:27:38;;;;;;;;;;;;;;;1.45;44.71;100418.94;1731262;81;24449;-84
2022/03/21 02:30:05;;;;;;;;;;;;;;;1.35;44.70;100416.81;1731311;82;20341;-85
2022/03/21 02:32:31;;;;;;;;;;;;;;;1.16;44.66;100416.37;1731178;81;24748;-85
2022/03/21 02:34:58;;;;;;;;;;;;;;;0.99;44.63;100420.23;1730629;82;22124;-86
2022/03/21 02:37:25;;;;;;;;;;;;;;;1.04;44.68;100415.08;1732355;82;25795;-85
2022/03/21 02:39:52;;;;;;;;;;;;;;;1.07;44.69;100418.97;1732898;82;24449;-85
2022/03/21 02:42:20;;;;;;;;;;;;;;;1.17;44.77;100409.94;1724842;82;20291;-86
2022/03/21 02:44:46;;;;;;;;;;;;;;;1.08;44.76;100416.39;1689347;84;24759;-86
2022/03/21 02:47:12;;;;;;;;;;;;;;;0.87;44.74;100411.66;1719862;82;20371;-85
2022/03/21 02:49:38;;;;;;;;;;;;;;;0.65;44.72;100418.08;1728387;82;26015;-85
2022/03/21 02:52:07;;;;;;;;;;;;;;;0.51;44.75;100417.17;1734162;82;24376;-86
2022/03/21 02:54:33;;;;;;;;;;;;;;;0.38;44.77;100418.84;1731371;82;20271;-86
2022/03/21 02:57:00;;;;;;;;;;;;;;;0.43;44.86;100416.31;1712668;82;24730;-86
2022/03/21 02:59:27;;;;;;;;;;;;;;;0.58;44.95;100418.05;1699158;84;22030;-86
2022/03/21 03:01:54;;;;;;;;;;;;;;;0.71;45.05;100418.06;1718515;83;25436;-86
2022/03/21 03:04:21;;;;;;;;;;;;;;;0.81;45.12;100415.09;1725528;80;24505;-86
2022/03/21 03:06:47;;;;;;;;;;;;;;;0.97;45.20;100410.80;1720628;82;20339;-85
2022/03/21 03:09:14;;;;;;;;;;;;;;;1.05;45.24;100412.51;1720633;82;24926;-86
2022/03/21 03:11:40;;;;;;;;;;;;;;;1.06;45.27;100412.08;1729265;82;21948;-85
2022/03/21 03:14:06;;;;;;;;;;;;;;;0.91;45.25;100408.22;1730569;82;25990;-85
2022/03/21 03:16:33;;;;;;;;;;;;;;;0.73;45.22;100418.94;1682667;84;25134;-85
2022/03/21 03:18:59;;;;;;;;;;;;;;;0.58;45.19;100412.47;1734584;82;20662;-87
2022/03/21 03:21:25;;;;;;;;;;;;;;;0.44;45.18;100418.45;1702763;83;24793;-85
2022/03/21 03:23:52;;;;;;;;;;;;;;;0.24;45.20;100417.09;1735433;82;21764;-84
2022/03/21 03:26:19;;;;;;;;;;;;;;;-0.03;45.19;100421.70;1733069;82;25958;-86
2022/03/21 03:28:46;;;;;;;;;;;;;;;-0.22;45.25;100423.77;1734483;82;25633;-85
2022/03/21 03:31:17;;;;;;;;;;;;;;;-0.31;45.31;100418.55;1734330;82;20228;-84
2022/03/21 03:33:45;;;;;;;;;;;;;;;-0.16;45.45;100422.48;1734353;82;25411;-86
2022/03/21 03:36:15;;;;;;;;;;;;;;;-0.01;45.59;100422.16;1728678;82;22259;-86
2022/03/21 03:38:43;;;;;;;;;;;;;;;0.10;45.72;100423.48;1720924;82;26720;-86
2022/03/21 03:41:09;;;;;;;;;;;;;;;0.09;45.82;100406.32;1714812;82;24890;-85
2022/03/21 03:43:37;;;;;;;;;;;;;;;0.20;45.88;100416.23;1709756;82;20314;-85
2022/03/21 03:46:04;;;;;;;;;;;;;;;0.31;45.98;100414.55;1721614;83;24798;-86
2022/03/21 03:48:33;;;;;;;;;;;;;;;0.43;46.05;100415.45;1704470;82;22104;-85
2022/03/21 03:50:59;;;;;;;;;;;;;;;0.45;46.07;100408.14;1711740;83;25967;-85
2022/03/21 03:53:31;;;;;;;;;;;;;;;0.33;46.07;100387.07;1713640;81;25262;-85
2022/03/21 03:55:58;;;;;;;;;;;;;;;0.49;46.11;100402.16;1707070;82;20506;-84
2022/03/21 03:58:24;;;;;;;;;;;;;;;0.54;46.12;100407.31;1711029;83;24828;-84
2022/03/21 04:00:51;;;;;;;;;;;;;;;0.56;46.18;100404.30;1714206;83;20925;-85
2022/03/21 04:06:02;;;;;;;;;;;;;;;0.57;46.19;100404.31;1702788;83;24450;-84
2022/03/21 04:08:29;;;;;;;;;;;;;;;0.63;46.24;100411.19;1716624;81;20306;-84
2022/03/21 04:10:57;;;;;;;;;;;;;;;0.57;46.25;100407.30;1707019;83;24752;-84
2022/03/21 04:13:25;;;;;;;;;;;;;;;0.59;46.26;100410.76;1708428;83;22190;-84
2022/03/21 04:15:51;;;;;;;;;;;;;;;0.62;46.28;100407.75;1715841;82;26079;-86
2022/03/21 04:18:18;;;;;;;;;;;;;;;0.59;46.28;100410.33;1711578;82;24395;-84
2022/03/21 04:20:44;;;;;;;;;;;;;;;0.43;46.27;100415.45;1713544;82;20230;-83
2022/03/21 04:23:12;;;;;;;;;;;;;;;0.44;46.30;100410.27;1718904;82;24770;-85
2022/03/21 04:25:38;;;;;;;;;;;;;;;0.51;46.37;100405.58;1709526;82;21939;-85
2022/03/21 04:28:08;;;;;;;;;;;;;;;0.57;46.40;100409.88;1714991;81;26026;-85
2022/03/21 04:30:34;;;;;;;;;;;;;;;0.62;46.43;100409.46;1709568;82;24388;-85
2022/03/21 04:33:00;;;;;;;;;;;;;;;0.66;46.46;100415.05;1708517;82;20284;-85
2022/03/21 04:35:26;;;;;;;;;;;;;;;0.37;46.39;100421.02;1709986;82;24917;-86
2022/03/21 04:37:54;;;;;;;;;;;;;;;0.08;46.31;100415.31;1710204;82;22033;-83
2022/03/21 04:40:20;;;;;;;;;;;;;;;-0.11;46.28;100419.08;1721781;80;25962;-84
2022/03/21 04:42:46;;;;;;;;;;;;;;;-0.13;46.30;100422.09;1760965;79;24528;-84
2022/03/21 04:45:12;;;;;;;;;;;;;;;0.01;46.38;100420.86;1775737;80;20653;-85
2022/03/21 04:47:39;;;;;;;;;;;;;;;0.14;46.47;100426.50;1761686;79;24801;-86
2022/03/21 04:50:07;;;;;;;;;;;;;;;0.25;46.53;100426.11;1770890;80;22057;-84
2022/03/21 04:52:34;;;;;;;;;;;;;;;0.38;46.61;100426.57;1769656;80;25687;-85
2022/03/21 04:55:01;;;;;;;;;;;;;;;0.48;46.67;100426.62;1723646;82;24464;-85
2022/03/21 04:57:27;;;;;;;;;;;;;;;0.49;46.69;100424.05;1720412;82;20290;-84
2022/03/21 04:59:54;;;;;;;;;;;;;;;0.52;46.71;100422.76;1707479;82;24726;-84
2022/03/21 05:02:21;;;;;;;;;;;;;;;0.53;46.73;100421.05;1709900;82;21995;-83
2022/03/21 05:04:47;;;;;;;;;;;;;;;0.57;46.75;100420.19;1709222;82;25940;-83
2022/03/21 05:07:17;;;;;;;;;;;;;;;0.56;46.75;100422.33;1712209;82;24482;-83
2022/03/21 05:09:43;;;;;;;;;;;;;;;0.43;46.70;100426.61;1716241;82;20289;-84
2022/03/21 05:12:10;;;;;;;;;;;;;;;0.26;46.68;100427.84;1711709;82;24900;-84
2022/03/21 05:14:36;;;;;;;;;;;;;;;0.17;46.67;100432.07;1714467;83;22097;-84
2022/03/21 05:17:05;;;;;;;;;;;;;;;0.16;46.70;100432.53;1701432;83;26130;-84
2022/03/21 05:19:35;;;;;;;;;;;;;;;0.20;46.72;100432.97;1770212;80;25085;-84
2022/03/21 05:22:02;;;;;;;;;;;;;;;0.26;46.78;100443.29;1756903;80;20340;-84
2022/03/21 05:32:42;;;;;;;;;;;;;;;-0.25;46.82;100439.17;1737712;80;24637;-83
2022/03/21 05:37:54;;;;;;;;;;;;;;;-0.13;47.01;100445.67;1737193;81;24806;-83
2022/03/21 05:40:35;;;;;;;;;;;;;;;0.12;47.19;100446.22;1695276;83;21979;-84
2022/03/21 05:43:05;;;;;;;;;;;;;;;0.25;47.31;100445.42;1728163;82;26915;-84
2022/03/21 05:45:31;;;;;;;;;;;;;;;0.52;47.47;100448.94;1730192;82;24490;-84
2022/03/21 05:50:43;;;;;;;;;;;;;;;0.84;47.64;100446.87;1760772;80;24821;-84
2022/03/21 05:53:09;;;;;;;;;;;;;;;1.09;47.77;100447.73;1777980;79;22046;-85
2022/03/21 05:55:35;;;;;;;;;;;;;;;1.25;47.81;100447.34;1759245;79;25977;-84
2022/03/21 05:58:02;;;;;;;;;;;;;;;1.38;47.81;100453.33;1771497;79;24417;-84
2022/03/21 06:00:28;;;;;;;;;;;;;;;1.50;47.85;100456.77;1777005;79;20177;-85
2022/03/21 06:02:57;;;;;;;;;;;;;;;1.62;47.89;100453.32;1767077;79;24836;-84
2022/03/21 06:05:23;;;;;;;;;;;;;;;1.55;47.84;100451.60;1786749;79;23323;-85
2022/03/21 06:07:51;;;;;;;;;;;;;;;1.55;47.79;100460.63;1770129;79;26031;-86
2022/03/21 06:10:17;;;;;;;;;;;;;;;1.47;47.78;100455.92;1763925;81;24445;-85
2022/03/21 06:12:44;;;;;;;;;;;;;;;1.42;47.74;100460.23;1767527;79;20493;-85
2022/03/21 06:15:10;;;;;;;;;;;;;;;1.48;47.76;100462.78;1764317;79;24887;-85
2022/03/21 06:17:38;;;;;;;;;;;;;;;1.50;47.78;100459.78;1783579;78;21937;-85
2022/03/21 06:20:08;;;;;;;;;;;;;;;1.40;47.76;100462.80;1782204;79;26022;-84
2022/03/21 06:22:34;;;;;;;;;;;;;;;1.29;47.77;100454.20;1774479;79;24430;-84
2022/03/21 06:25:00;;;;;;;;;;;;;;;1.18;47.76;100463.23;1767149;79;20158;-86
2022/03/21 06:27:26;;;;;;;;;;;;;;;1.15;47.78;100462.34;1782175;79;24708;-86
2022/03/21 06:29:58;;;;;;;;;;;;;;;1.26;47.85;100459.34;1766424;79;22659;-85
2022/03/21 06:32:25;;;;;;;;;;;;;;;1.41;47.99;100461.09;1777777;78;25939;-86
2022/03/21 06:34:52;;;;;;;;;;;;;;;1.65;48.12;100458.03;1774963;79;24430;-85
2022/03/21 06:37:19;;;;;;;;;;;;;;;1.87;48.28;100461.44;1785643;79;20248;-86
2022/03/21 06:39:47;;;;;;;;;;;;;;;2.04;48.42;100458.38;1747943;79;25378;-86
2022/03/21 06:42:14;;;;;;;;;;;;;;;2.18;48.51;100462.66;1768206;79;21955;-85
2022/03/21 06:44:43;;;;;;;;;;;;;;;2.26;48.56;100467.34;1773966;79;26089;-85
2022/03/21 06:47:10;;;;;;;;;;;;;;;2.26;48.58;100466.05;1772851;79;24433;-84
2022/03/21 06:49:37;;;;;;;;;;;;;;;2.21;48.60;100469.95;1755039;79;20559;-85
2022/03/21 06:52:05;;;;;;;;;;;;;;;2.21;48.60;100467.36;1772086;79;25419;-84
2022/03/21 06:54:32;;;;;;;;;;;;;;;2.19;48.62;100468.22;1774915;79;22179;-84
2022/03/21 06:56:58;;;;;;;;;;;;;;;2.21;48.64;100466.50;1775367;79;26021;-84
2022/03/21 06:59:24;;;;;;;;;;;;;;;2.26;48.71;100463.04;1768427;79;20243;-84
2022/03/21 07:01:50;;;;;;;;;;;;;;;2.25;48.74;100465.62;1758323;79;20163;-84
2022/03/21 07:04:16;;;;;;;;;;;;;;;2.20;48.74;100472.52;1775104;79;24809;-85
2022/03/21 07:06:42;;;;;;;;;;;;;;;2.25;48.75;100474.23;1770875;79;22054;-85
2022/03/21 07:09:09;;;;;;;;;;;;;;;2.37;48.85;100473.33;1760732;78;26057;-84
2022/03/21 07:11:37;;;;;;;;;;;;;;;2.48;48.94;100472.42;1775063;79;24470;-84
2022/03/21 07:14:03;;;;;;;;;;;;;;;2.65;49.07;100476.22;1777442;80;20170;-85
2022/03/21 07:16:31;;;;;;;;;;;;;;;2.74;49.13;100472.27;1779711;79;25451;-84
2022/03/21 07:19:03;;;;;;;;;;;;;;;2.84;49.22;100475.23;1785931;79;21958;-84
2022/03/21 07:21:26;;;;;;;;;;;;;;;2.89;49.28;100480.40;1771728;78;26001;-84
2022/03/21 07:23:54;;;;;;;;;;;;;;;2.99;49.33;100473.43;1765235;79;25045;-84
2022/03/21 07:26:20;;;;;;;;;;;;;;;3.12;49.39;100484.09;1768954;79;20151;-85
2022/03/21 07:28:46;;;;;;;;;;;;;;;3.21;49.44;100482.77;1755908;79;24806;-84
2022/03/21 07:31:13;;;;;;;;;;;;;;;3.33;49.52;100480.06;1756890;79;22638;-86
2022/03/21 07:33:41;;;;;;;;;;;;;;;3.43;49.56;100480.44;1759270;79;22389;-85
2022/03/21 07:36:08;;;;;;;;;;;;;;;3.53;49.59;100482.50;1775595;79;24521;-85
2022/03/21 07:38:35;;;;;;;;;;;;;;;3.52;49.60;100481.64;1776124;79;20247;-85
2022/03/21 07:41:01;;;;;;;;;;;;;;;3.46;49.60;100482.98;1775567;79;24770;-85
2022/03/21 07:43:28;;;;;;;;;;;;;;;3.45;49.56;100483.84;1785747;79;22704;-85
2022/03/21 07:48:39;;;;;;;;;;;;;;;3.50;49.58;100485.95;1727152;82;24512;-84
2022/03/21 07:51:05;;;;;;;;;;;;;;;3.65;49.68;100482.41;1668483;82;20309;-85
2022/03/21 07:53:33;;;;;;;;;;;;;;;3.72;49.72;100490.08;1728939;82;25573;-85
2022/03/21 07:56:00;;;;;;;;;;;;;;;3.82;49.79;100490.84;1717279;82;22038;-85
2022/03/21 07:58:27;;;;;;;;;;;;;;;3.89;49.80;100490.35;1726126;82;26002;-85
2022/03/21 08:00:53;;;;;;;;;;;;;;;3.95;49.80;100492.88;1725572;82;24536;-85
2022/03/21 08:03:21;;;;;;;;;;;;;;;4.03;49.85;100485.91;1725857;82;20359;-85
2022/03/21 08:05:47;;;;;;;;;;;;;;;4.05;49.85;100486.73;1715808;82;24798;-85
2022/03/21 08:08:14;;;;;;;;;;;;;;;4.13;49.88;100485.79;1720049;82;22033;-85
2022/03/21 08:10:40;;;;;;;;;;;;;;;4.18;49.89;100485.30;1729005;82;26005;-85
2022/03/21 08:13:08;;;;;;;;;;;;;;;4.26;49.89;100493.40;1724322;82;24668;-86
2022/03/21 08:15:36;;;;;;;;;;;;;;;4.33;49.90;100492.03;1720768;82;20522;-86
2022/03/21 08:18:05;;;;;;;;;;;;;;;4.39;49.90;100490.67;1721774;82;24771;-84
2022/03/21 08:20:33;;;;;;;;;;;;;;;4.45;49.85;100486.70;1724146;82;21486;-84
2022/03/21 08:23:03;;;;;;;;;;;;;;;4.49;49.81;100484.48;1721491;81;26037;-86
2022/03/21 08:25:30;;;;;;;;;;;;;;;4.57;49.81;100483.97;1696133;83;24525;-85
2022/03/21 08:27:56;;;;;;;;;;;;;;;4.62;49.81;100478.72;1699754;84;20500;-85
2022/03/21 08:30:22;;;;;;;;;;;;;;;4.69;49.77;100471.72;1709547;83;24746;-85
2022/03/21 08:32:48;;;;;;;;;;;;;;;4.77;49.76;100475.05;1707697;83;22029;-84
2022/03/21 08:35:16;;;;;;;;;;;;;;;4.82;49.69;100460.28;1707132;83;25956;-84
2022/03/21 08:37:42;;;;;;;;;;;;;;;4.91;49.57;100464.89;1704533;82;24666;-85
2022/03/21 08:40:09;;;;;;;;;;;;;;;4.95;49.41;100463.13;1723425;81;20264;-85
2022/03/21 08:42:37;;;;;;;;;;;;;;;5.05;49.29;100460.81;1718720;82;24830;-86
2022/03/21 08:45:04;;;;;;;;;;;;;;;5.16;49.22;100464.54;1712191;83;22289;-85
2022/03/21 08:47:30;;;;;;;;;;;;;;;5.25;49.07;100466.55;1711634;83;26003;-85
2022/03/21 08:49:56;;;;;;;;;;;;;;;5.35;48.96;100462.91;1696727;83;24382;-85
2022/03/21 08:52:22;;;;;;;;;;;;;;;5.43;48.87;100463.66;1701963;83;20319;-86
2022/03/21 08:54:48;;;;;;;;;;;;;;;5.55;48.77;100464.34;1716623;83;24838;-86
2022/03/21 08:57:14;;;;;;;;;;;;;;;5.62;48.66;100465.95;1713574;81;21948;-86
2022/03/21 08:59:41;;;;;;;;;;;;;;;5.70;48.56;100455.83;1749490;81;27218;-86
2022/03/21 09:02:08;;;;;;;;;;;;;;;5.83;48.52;100460.37;1741425;81;24385;-86
2022/03/21 09:04:35;;;;;;;;;;;;;;;5.90;48.38;100452.89;1737814;81;20271;-86
2022/03/21 09:07:02;;;;;;;;;;;;;;;5.97;48.22;100446.70;1738530;82;24769;-86
2022/03/21 09:09:28;;;;;;;;;;;;;;;6.06;48.09;100451.72;1710010;83;22078;-86
2022/03/21 09:11:54;;;;;;;;;;;;;;;6.10;47.86;100449.50;1741310;81;26030;-86
2022/03/21 09:14:20;;;;;;;;;;;;;;;6.10;47.64;100447.34;1739666;81;24549;-87
2022/03/21 09:16:47;;;;;;;;;;;;;;;6.16;47.41;100446.78;1734689;81;20201;-85
2022/03/21 09:19:15;;;;;;;;;;;;;;;6.27;47.26;100451.77;1741936;81;24703;-86
2022/03/21 09:21:41;;;;;;;;;;;;;;;6.33;47.01;100448.19;1732926;81;21895;-85
2022/03/21 09:24:10;;;;;;;;;;;;;;;6.40;46.80;100439.34;1741691;81;25998;-86
2022/03/21 09:26:36;;;;;;;;;;;;;;;6.48;46.67;100441.36;1738006;81;24784;-85
2022/03/21 09:29:06;;;;;;;;;;;;;;;6.58;46.54;100436.37;1741814;81;20308;-86
2022/03/21 09:31:31;;;;;;;;;;;;;;;6.69;46.38;100442.19;1741839;81;24860;-85
2022/03/21 09:33:57;;;;;;;;;;;;;;;6.81;46.21;100442.37;1742585;81;21958;-86
2022/03/21 09:36:24;;;;;;;;;;;;;;;6.87;45.91;100439.63;1696794;84;26023;-86
2022/03/21 09:38:52;;;;;;;;;;;;;;;6.88;45.58;100434.37;1708525;82;24508;-85
2022/03/21 09:41:28;;;;;;;;;;;;;;;6.92;45.32;100436.03;1705645;83;20145;-85
2022/03/21 09:43:55;;;;;;;;;;;;;;;6.98;45.03;100427.23;1705770;83;24813;-86
2022/03/21 09:46:22;;;;;;;;;;;;;;;7.06;44.72;100433.09;1698559;82;22083;-86
2022/03/21 09:48:49;;;;;;;;;;;;;;;7.10;44.40;100430.81;1702465;83;25974;-87
2022/03/21 09:51:22;;;;;;;;;;;;;;;7.15;44.16;100426.36;1694764;83;24562;-86
2022/03/21 09:53:49;;;;;;;;;;;;;;;7.20;43.85;100427.09;1703916;83;20645;-86
2022/03/21 09:56:16;;;;;;;;;;;;;;;7.29;43.66;100425.59;1780529;79;24795;-86
2022/03/21 09:58:43;;;;;;;;;;;;;;;7.38;43.52;100427.95;1773010;80;21685;-86
2022/03/21 10:01:11;;;;;;;;;;;;;;;7.47;43.47;100426.89;1773282;80;26120;-86
2022/03/21 10:03:41;;;;;;;;;;;;;;;7.58;43.38;100424.86;1769537;80;25131;-85
2022/03/21 10:06:26;;;;;;;;;;;;;;;7.68;43.27;100420.27;1765091;80;20470;-86
2022/03/21 10:09:04;;;;;;;;;;;;;;;7.77;43.19;100416.95;1760754;80;24925;-86
2022/03/21 10:11:30;;;;;;;;;;;;;;;7.85;43.09;100418.92;1777175;79;21973;-85
2022/03/21 10:13:57;;;;;;;;;;;;;;;7.93;42.99;100411.73;1773117;80;26173;-85
2022/03/21 10:16:24;;;;;;;;;;;;;;;7.96;42.66;100411.63;1777404;80;24431;-86
2022/03/21 10:18:58;;;;;;;;;;;;;;;7.97;42.39;100409.44;1778977;80;20889;-86
2022/03/21 10:21:28;;;;;;;;;;;;;;;8.06;42.26;100408.80;1768991;80;24852;-85
2022/03/21 10:24:07;;;;;;;;;;;;;;;8.18;42.14;100400.63;1776370;80;21942;-86
2022/03/21 10:26:35;;;;;;;;;;;;;;;8.29;42.10;100392.87;1775122;79;26691;-86
2022/03/21 10:29:04;;;;;;;;;;;;;;;8.38;42.03;100396.57;1771223;80;25001;-86
2022/03/21 10:31:40;;;;;;;;;;;;;;;8.45;41.96;100393.78;1778747;79;20315;-85
2022/03/21 10:34:16;;;;;;;;;;;;;;;8.53;41.93;100388.72;1779901;80;24790;-86
2022/03/21 10:36:44;;;;;;;;;;;;;;;8.54;41.67;100397.41;1777178;80;22087;-86
2022/03/21 10:39:11;;;;;;;;;;;;;;;8.50;41.46;100392.75;1765178;80;26130;-86
2022/03/21 10:41:38;;;;;;;;;;;;;;;8.58;41.37;100380.30;1777058;80;25263;-86
2022/03/21 10:44:05;;;;;;;;;;;;;;;8.66;41.27;100384.85;1773193;79;20316;-86
2022/03/21 10:46:31;;;;;;;;;;;;;;;8.75;41.20;100381.09;1775743;80;24841;-86
2022/03/21 10:49:01;;;;;;;;;;;;;;;8.75;40.95;100381.95;1774443;80;22048;-85
2022/03/21 10:51:29;;;;;;;;;;;;;;;8.81;40.86;100382.20;1779894;80;25943;-86
2022/03/21 10:53:58;;;;;;;;;;;;;;;8.82;40.75;100376.09;1771932;80;24494;-85
2022/03/21 10:56:23;;;;;;;;;;;;;;;8.85;40.70;100368.59;1753572;80;20212;-86
2022/03/21 10:58:49;;;;;;;;;;;;;;;8.89;40.62;100365.83;1779830;79;24995;-86
2022/03/21 11:01:21;;;;;;;;;;;;;;;8.92;40.52;100367.05;1772055;80;22024;-86
2022/03/21 11:03:51;;;;;;;;;;;;;;;8.98;40.44;100363.39;1777642;79;26228;-87
2022/03/21 11:06:19;;;;;;;;;;;;;;;9.04;40.30;100367.11;1772364;79;25322;-86
2022/03/21 11:08:52;;;;;;;;;;;;;;;9.02;40.06;100361.07;1778475;78;20235;-85
2022/03/21 11:11:18;;;;;;;;;;;;;;;9.03;39.81;100362.34;1779851;80;24922;-85
2022/03/21 11:13:50;;;;;;;;;;;;;;;9.07;39.72;100353.94;1773082;79;22608;-85
2022/03/21 11:16:17;;;;;;;;;;;;;;;9.15;39.69;100349.33;1774955;80;26092;-85
2022/03/21 11:18:44;;;;;;;;;;;;;;;9.21;39.64;100347.81;1732300;81;24500;-85
2022/03/21 11:21:13;;;;;;;;;;;;;;;9.29;39.52;100340.56;1691565;84;20162;-85
2022/03/21 11:23:39;;;;;;;;;;;;;;;9.35;39.43;100339.05;1777919;80;24836;-85
2022/03/21 11:26:10;;;;;;;;;;;;;;;9.44;39.39;100341.78;1777279;79;22040;-85
2022/03/21 11:28:43;;;;;;;;;;;;;;;9.51;39.32;100330.22;1779629;79;26003;-85
2022/03/21 11:31:28;;;;;;;;;;;;;;;9.60;39.26;100328.61;1731490;82;24555;-85
2022/03/21 11:34:11;;;;;;;;;;;;;;;9.68;39.15;100329.62;1719818;81;20259;-85
2022/03/21 11:36:50;;;;;;;;;;;;;;;9.67;38.97;100323.53;1701290;83;24734;-86
2022/03/21 11:39:16;;;;;;;;;;;;;;;9.69;38.82;100317.80;1733509;81;21683;-86
2022/03/21 11:41:57;;;;;;;;;;;;;;;9.70;38.69;100319.97;1776999;79;26084;-86
2022/03/21 11:44:23;;;;;;;;;;;;;;;9.72;38.56;100314.21;1774577;80;24350;-86
2022/03/21 11:46:49;;;;;;;;;;;;;;;9.74;38.40;100311.09;1777168;80;20236;-86
2022/03/21 11:49:20;;;;;;;;;;;;;;;9.77;38.29;100313.59;1775995;80;24782;-86
2022/03/21 11:51:56;;;;;;;;;;;;;;;9.81;38.11;100307.36;1693438;83;21973;-86
2022/03/21 11:54:26;;;;;;;;;;;;;;;9.82;38.02;100307.28;1778800;80;25967;-86
2022/03/21 11:56:54;;;;;;;;;;;;;;;9.91;38.00;100303.48;1778991;80;24695;-86
2022/03/21 11:59:26;;;;;;;;;;;;;;;9.98;37.91;100300.57;1776439;80;20234;-86
2022/03/21 12:01:49;;;;;;;;;;;;;;;10.03;37.81;100296.05;1757435;80;25007;-86
2022/03/21 12:04:29;;;;;;;;;;;;;;;10.14;37.83;100289.55;1772937;78;22049;-86
2022/03/21 12:06:56;;;;;;;;;;;;;;;10.14;37.69;100284.31;1775667;78;25285;-86
2022/03/21 12:09:22;;;;;;;;;;;;;;;10.20;37.59;100284.94;1779365;78;25497;-86
2022/03/21 12:11:50;;;;;;;;;;;;;;;10.21;37.44;100288.41;1778327;78;20226;-87
2022/03/21 12:14:21;;;;;;;;;;;;;;;10.21;37.29;100284.48;1778949;78;24828;-87
2022/03/21 12:16:49;;;;;;;;;;;;;;;10.22;37.20;100284.89;1777878;78;22022;-86
2022/03/21 12:19:17;;;;;;;;;;;;;;;10.32;37.21;100281.00;1778492;78;26016;-86
2022/03/21 12:21:44;;;;;;;;;;;;;;;10.38;37.12;100277.69;1779696;78;24399;-86
2022/03/21 12:24:17;;;;;;;;;;;;;;;10.40;37.00;100274.56;1758925;79;20332;-85
2022/03/21 12:26:51;;;;;;;;;;;;;;;10.40;36.90;100269.33;1779469;79;24729;-85
2022/03/21 12:29:33;;;;;;;;;;;;;;;10.39;36.73;100269.38;1781903;80;21603;-86
2022/03/21 12:32:17;;;;;;;;;;;;;;;10.44;36.65;100265.67;1784638;78;25942;-86
2022/03/21 12:34:45;;;;;;;;;;;;;;;10.48;36.47;100258.53;1782040;80;24518;-86
2022/03/21 12:37:24;;;;;;;;;;;;;;;10.48;36.34;100247.61;1774796;78;20384;-85
2022/03/21 12:39:53;;;;;;;;;;;;;;;10.57;36.26;100252.95;1782160;79;24793;-85
2022/03/21 12:42:19;;;;;;;;;;;;;;;10.59;36.12;100248.94;1786124;80;22025;-86
2022/03/21 12:44:45;;;;;;;;;;;;;;;10.64;36.04;100249.59;1781309;79;26020;-86
2022/03/21 12:47:11;;;;;;;;;;;;;;;10.63;35.84;100243.53;1775422;78;24406;-86
2022/03/21 12:49:51;;;;;;;;;;;;;;;10.66;35.78;100243.85;1777583;78;20361;-86
2022/03/21 12:52:28;;;;;;;;;;;;;;;10.67;35.61;100240.33;1781890;79;24806;-87
2022/03/21 12:54:57;;;;;;;;;;;;;;;10.70;35.66;100241.04;1775927;79;22648;-86
2022/03/21 12:57:23;;;;;;;;;;;;;;;10.74;35.53;100242.64;1784734;79;26201;-86
2022/03/21 12:59:49;;;;;;;;;;;;;;;10.73;35.43;100233.07;1778887;80;24514;-86
2022/03/21 13:02:27;;;;;;;;;;;;;;;10.70;35.27;100233.64;1777533;79;20248;-86
2022/03/21 13:10:33;;;;;;;;;;;;;;;10.70;34.93;100232.33;1774766;80;26112;-85
2022/03/21 13:13:02;;;;;;;;;;;;;;;10.73;34.88;100233.53;1778262;80;24394;-85
2022/03/21 13:15:29;;;;;;;;;;;;;;;10.74;34.80;100228.23;1778663;80;20282;-85